sensor_id;sensor_type;location;lat;lon;timestamp;P1;durP1;ratioP1;P2;durP2;ratioP2
73900;SDS011;62235;52.160;7.526;2023-07-31T00:00:11;1.55;;;1.30;;
73900;SDS011;62235;52.160;7.526;2023-07-31T00:02:37;4.60;;;1.10;;
73900;SDS011;62235;52.160;7.526;2023-07-31T00:05:02;2.97;;;1.23;;
73900;SDS011;62235;52.160;7.526;2023-07-31T00:07:28;3.85;;;1.20;;
73900;SDS011;62235;52.160;7.526;2023-07-31T00:09:53;2.35;;;1.17;;
73900;SDS011;62235;52.160;7.526;2023-07-31T00:12:19;2.00;;;1.17;;
73900;SDS011;62235;52.160;7.526;2023-07-31T00:14:45;2.72;;;1.25;;
73900;SDS011;62235;52.160;7.526;2023-07-31T00:17:10;2.15;;;1.20;;
73900;SDS011;62235;52.160;7.526;2023-07-31T00:19:36;1.40;;;1.13;;
73900;SDS011;62235;52.160;7.526;2023-07-31T00:22:01;1.80;;;1.10;;
73900;SDS011;62235;52.160;7.526;2023-07-31T00:24:27;1.55;;;1.05;;
73900;SDS011;62235;52.160;7.526;2023-07-31T00:26:52;2.27;;;1.00;;
73900;SDS011;62235;52.160;7.526;2023-07-31T00:29:17;2.07;;;1.20;;
73900;SDS011;62235;52.160;7.526;2023-07-31T00:31:43;2.25;;;1.10;;
73900;SDS011;62235;52.160;7.526;2023-07-31T00:34:08;1.90;;;1.40;;
73900;SDS011;62235;52.160;7.526;2023-07-31T00:36:34;1.95;;;1.10;;
73900;SDS011;62235;52.160;7.526;2023-07-31T00:38:59;1.43;;;1.20;;
73900;SDS011;62235;52.160;7.526;2023-07-31T00:41:25;1.57;;;1.00;;
73900;SDS011;62235;52.160;7.526;2023-07-31T00:43:50;1.63;;;1.30;;
73900;SDS011;62235;52.160;7.526;2023-07-31T00:46:15;2.40;;;1.30;;
73900;SDS011;62235;52.160;7.526;2023-07-31T00:48:41;2.03;;;1.20;;
73900;SDS011;62235;52.160;7.526;2023-07-31T00:51:07;1.85;;;0.98;;
73900;SDS011;62235;52.160;7.526;2023-07-31T00:53:32;1.55;;;0.80;;
73900;SDS011;62235;52.160;7.526;2023-07-31T00:55:58;2.05;;;1.23;;
73900;SDS011;62235;52.160;7.526;2023-07-31T00:58:24;2.55;;;1.23;;
73900;SDS011;62235;52.160;7.526;2023-07-31T01:00:49;1.88;;;1.10;;
73900;SDS011;62235;52.160;7.526;2023-07-31T01:03:15;1.73;;;1.10;;
73900;SDS011;62235;52.160;7.526;2023-07-31T01:08:21;2.22;;;1.20;;
73900;SDS011;62235;52.160;7.526;2023-07-31T01:10:54;2.10;;;1.10;;
73900;SDS011;62235;52.160;7.526;2023-07-31T01:13:21;3.10;;;1.15;;
73900;SDS011;62235;52.160;7.526;2023-07-31T01:15:46;2.08;;;1.10;;
73900;SDS011;62235;52.160;7.526;2023-07-31T01:18:12;2.00;;;1.30;;
73900;SDS011;62235;52.160;7.526;2023-07-31T01:20:37;2.80;;;1.15;;
73900;SDS011;62235;52.160;7.526;2023-07-31T01:25:54;4.63;;;1.30;;
73900;SDS011;62235;52.160;7.526;2023-07-31T01:28:24;1.95;;;1.23;;
73900;SDS011;62235;52.160;7.526;2023-07-31T01:30:53;2.47;;;1.30;;
73900;SDS011;62235;52.160;7.526;2023-07-31T01:33:20;1.30;;;0.90;;
73900;SDS011;62235;52.160;7.526;2023-07-31T01:35:46;2.50;;;1.40;;
73900;SDS011;62235;52.160;7.526;2023-07-31T01:38:13;2.25;;;1.20;;
73900;SDS011;62235;52.160;7.526;2023-07-31T01:40:41;2.15;;;1.30;;
73900;SDS011;62235;52.160;7.526;2023-07-31T01:43:07;1.80;;;0.90;;
73900;SDS011;62235;52.160;7.526;2023-07-31T01:45:32;2.37;;;1.17;;
73900;SDS011;62235;52.160;7.526;2023-07-31T01:47:57;3.53;;;1.33;;
73900;SDS011;62235;52.160;7.526;2023-07-31T01:50:23;2.43;;;0.80;;
73900;SDS011;62235;52.160;7.526;2023-07-31T01:52:48;0.68;;;0.52;;
73900;SDS011;62235;52.160;7.526;2023-07-31T01:55:13;1.50;;;1.00;;
73900;SDS011;62235;52.160;7.526;2023-07-31T01:57:39;1.93;;;0.80;;
73900;SDS011;62235;52.160;7.526;2023-07-31T02:00:04;1.83;;;0.77;;
73900;SDS011;62235;52.160;7.526;2023-07-31T02:02:30;0.88;;;0.65;;
73900;SDS011;62235;52.160;7.526;2023-07-31T02:04:55;2.83;;;0.53;;
73900;SDS011;62235;52.160;7.526;2023-07-31T02:07:21;5.20;;;0.80;;
73900;SDS011;62235;52.160;7.526;2023-07-31T02:09:46;1.47;;;0.40;;
73900;SDS011;62235;52.160;7.526;2023-07-31T02:12:12;2.67;;;0.60;;
73900;SDS011;62235;52.160;7.526;2023-07-31T02:14:39;0.73;;;0.50;;
73900;SDS011;62235;52.160;7.526;2023-07-31T02:17:05;1.70;;;0.60;;
73900;SDS011;62235;52.160;7.526;2023-07-31T02:19:30;0.60;;;0.40;;
73900;SDS011;62235;52.160;7.526;2023-07-31T02:21:56;1.00;;;0.40;;
73900;SDS011;62235;52.160;7.526;2023-07-31T02:24:21;0.85;;;0.45;;
73900;SDS011;62235;52.160;7.526;2023-07-31T02:26:46;0.70;;;0.47;;
73900;SDS011;62235;52.160;7.526;2023-07-31T02:29:12;1.13;;;0.40;;
73900;SDS011;62235;52.160;7.526;2023-07-31T02:31:37;0.90;;;0.50;;
73900;SDS011;62235;52.160;7.526;2023-07-31T02:34:02;0.77;;;0.40;;
73900;SDS011;62235;52.160;7.526;2023-07-31T02:36:28;0.70;;;0.50;;
73900;SDS011;62235;52.160;7.526;2023-07-31T02:38:53;1.17;;;0.73;;
73900;SDS011;62235;52.160;7.526;2023-07-31T02:41:18;2.40;;;1.20;;
73900;SDS011;62235;52.160;7.526;2023-07-31T02:43:44;1.73;;;0.90;;
73900;SDS011;62235;52.160;7.526;2023-07-31T02:46:09;3.80;;;1.50;;
73900;SDS011;62235;52.160;7.526;2023-07-31T02:48:34;5.47;;;1.60;;
73900;SDS011;62235;52.160;7.526;2023-07-31T02:51:00;5.25;;;2.08;;
73900;SDS011;62235;52.160;7.526;2023-07-31T02:53:25;6.70;;;2.27;;
73900;SDS011;62235;52.160;7.526;2023-07-31T02:55:50;7.70;;;2.43;;
73900;SDS011;62235;52.160;7.526;2023-07-31T02:58:16;11.57;;;3.85;;
73900;SDS011;62235;52.160;7.526;2023-07-31T03:00:42;7.50;;;3.00;;
73900;SDS011;62235;52.160;7.526;2023-07-31T03:03:10;12.20;;;5.25;;
73900;SDS011;62235;52.160;7.526;2023-07-31T03:05:35;16.08;;;4.80;;
73900;SDS011;62235;52.160;7.526;2023-07-31T03:08:01;14.40;;;6.30;;
73900;SDS011;62235;52.160;7.526;2023-07-31T03:10:26;13.02;;;5.28;;
73900;SDS011;62235;52.160;7.526;2023-07-31T03:12:52;17.33;;;7.75;;
73900;SDS011;62235;52.160;7.526;2023-07-31T03:15:17;17.90;;;6.43;;
73900;SDS011;62235;52.160;7.526;2023-07-31T03:17:42;21.25;;;9.45;;
73900;SDS011;62235;52.160;7.526;2023-07-31T03:20:08;13.25;;;5.00;;
73900;SDS011;62235;52.160;7.526;2023-07-31T03:22:34;13.18;;;4.70;;
73900;SDS011;62235;52.160;7.526;2023-07-31T03:25:00;21.65;;;8.43;;
73900;SDS011;62235;52.160;7.526;2023-07-31T03:27:26;23.10;;;7.95;;
73900;SDS011;62235;52.160;7.526;2023-07-31T03:29:51;20.20;;;8.43;;
73900;SDS011;62235;52.160;7.526;2023-07-31T03:32:17;22.25;;;8.30;;
73900;SDS011;62235;52.160;7.526;2023-07-31T03:34:42;28.88;;;10.35;;
73900;SDS011;62235;52.160;7.526;2023-07-31T03:37:07;13.30;;;4.80;;
73900;SDS011;62235;52.160;7.526;2023-07-31T03:39:34;24.65;;;6.97;;
73900;SDS011;62235;52.160;7.526;2023-07-31T03:42:00;25.25;;;7.57;;
73900;SDS011;62235;52.160;7.526;2023-07-31T03:44:25;15.60;;;5.80;;
73900;SDS011;62235;52.160;7.526;2023-07-31T03:46:50;16.93;;;5.30;;
73900;SDS011;62235;52.160;7.526;2023-07-31T03:49:16;21.93;;;8.93;;
73900;SDS011;62235;52.160;7.526;2023-07-31T03:51:41;8.40;;;3.35;;
73900;SDS011;62235;52.160;7.526;2023-07-31T03:54:06;19.70;;;5.65;;
73900;SDS011;62235;52.160;7.526;2023-07-31T03:56:32;17.13;;;5.95;;
73900;SDS011;62235;52.160;7.526;2023-07-31T03:58:58;25.90;;;7.43;;
73900;SDS011;62235;52.160;7.526;2023-07-31T04:01:23;16.70;;;5.47;;
73900;SDS011;62235;52.160;7.526;2023-07-31T04:03:49;18.17;;;5.93;;
73900;SDS011;62235;52.160;7.526;2023-07-31T04:06:14;15.93;;;5.70;;
73900;SDS011;62235;52.160;7.526;2023-07-31T04:08:43;10.25;;;3.65;;
73900;SDS011;62235;52.160;7.526;2023-07-31T04:11:08;9.68;;;3.22;;
73900;SDS011;62235;52.160;7.526;2023-07-31T04:13:33;14.10;;;4.77;;
73900;SDS011;62235;52.160;7.526;2023-07-31T04:15:59;15.52;;;4.43;;
73900;SDS011;62235;52.160;7.526;2023-07-31T04:18:24;13.85;;;5.75;;
73900;SDS011;62235;52.160;7.526;2023-07-31T04:20:50;16.15;;;6.68;;
73900;SDS011;62235;52.160;7.526;2023-07-31T04:23:15;12.67;;;4.97;;
73900;SDS011;62235;52.160;7.526;2023-07-31T04:25:40;3.90;;;1.47;;
73900;SDS011;62235;52.160;7.526;2023-07-31T04:28:06;12.30;;;4.90;;
73900;SDS011;62235;52.160;7.526;2023-07-31T04:30:32;20.27;;;7.13;;
73900;SDS011;62235;52.160;7.526;2023-07-31T04:32:57;15.05;;;5.35;;
73900;SDS011;62235;52.160;7.526;2023-07-31T04:35:23;8.80;;;3.20;;
73900;SDS011;62235;52.160;7.526;2023-07-31T04:37:48;13.57;;;4.53;;
73900;SDS011;62235;52.160;7.526;2023-07-31T04:40:14;18.33;;;5.25;;
73900;SDS011;62235;52.160;7.526;2023-07-31T04:42:40;7.70;;;3.00;;
73900;SDS011;62235;52.160;7.526;2023-07-31T04:45:07;14.33;;;5.20;;
73900;SDS011;62235;52.160;7.526;2023-07-31T04:47:33;18.45;;;5.93;;
73900;SDS011;62235;52.160;7.526;2023-07-31T04:49:59;12.07;;;3.43;;
73900;SDS011;62235;52.160;7.526;2023-07-31T04:52:24;16.43;;;5.77;;
73900;SDS011;62235;52.160;7.526;2023-07-31T04:54:49;6.53;;;2.60;;
73900;SDS011;62235;52.160;7.526;2023-07-31T04:57:15;6.27;;;2.33;;
73900;SDS011;62235;52.160;7.526;2023-07-31T04:59:40;12.63;;;4.78;;
73900;SDS011;62235;52.160;7.526;2023-07-31T05:02:06;11.75;;;4.55;;
73900;SDS011;62235;52.160;7.526;2023-07-31T05:04:32;14.00;;;4.60;;
73900;SDS011;62235;52.160;7.526;2023-07-31T05:06:58;13.70;;;4.50;;
73900;SDS011;62235;52.160;7.526;2023-07-31T05:09:23;18.03;;;5.43;;
73900;SDS011;62235;52.160;7.526;2023-07-31T05:11:48;9.85;;;3.33;;
73900;SDS011;62235;52.160;7.526;2023-07-31T05:14:14;15.93;;;5.47;;
73900;SDS011;62235;52.160;7.526;2023-07-31T05:16:39;14.70;;;5.25;;
73900;SDS011;62235;52.160;7.526;2023-07-31T05:19:04;11.63;;;3.50;;
73900;SDS011;62235;52.160;7.526;2023-07-31T05:21:30;12.60;;;4.03;;
73900;SDS011;62235;52.160;7.526;2023-07-31T05:23:55;14.38;;;5.03;;
73900;SDS011;62235;52.160;7.526;2023-07-31T05:26:20;14.88;;;5.05;;
73900;SDS011;62235;52.160;7.526;2023-07-31T05:28:46;11.77;;;3.47;;
73900;SDS011;62235;52.160;7.526;2023-07-31T05:31:11;11.10;;;3.40;;
73900;SDS011;62235;52.160;7.526;2023-07-31T05:33:36;14.20;;;5.03;;
73900;SDS011;62235;52.160;7.526;2023-07-31T05:36:01;18.60;;;4.27;;
73900;SDS011;62235;52.160;7.526;2023-07-31T05:38:27;15.38;;;3.80;;
73900;SDS011;62235;52.160;7.526;2023-07-31T05:40:52;21.20;;;6.13;;
73900;SDS011;62235;52.160;7.526;2023-07-31T05:43:17;13.83;;;5.00;;
73900;SDS011;62235;52.160;7.526;2023-07-31T05:45:43;11.63;;;4.10;;
73900;SDS011;62235;52.160;7.526;2023-07-31T05:48:08;9.57;;;3.33;;
73900;SDS011;62235;52.160;7.526;2023-07-31T05:50:33;12.95;;;4.90;;
73900;SDS011;62235;52.160;7.526;2023-07-31T05:52:59;17.10;;;4.40;;
73900;SDS011;62235;52.160;7.526;2023-07-31T05:55:24;10.40;;;3.20;;
73900;SDS011;62235;52.160;7.526;2023-07-31T05:57:52;17.30;;;5.03;;
73900;SDS011;62235;52.160;7.526;2023-07-31T06:00:17;14.93;;;5.72;;
73900;SDS011;62235;52.160;7.526;2023-07-31T06:02:42;19.33;;;5.15;;
73900;SDS011;62235;52.160;7.526;2023-07-31T06:05:08;9.43;;;3.07;;
73900;SDS011;62235;52.160;7.526;2023-07-31T06:07:33;9.65;;;3.13;;
73900;SDS011;62235;52.160;7.526;2023-07-31T06:09:59;15.20;;;4.55;;
73900;SDS011;62235;52.160;7.526;2023-07-31T06:12:29;22.95;;;5.45;;
73900;SDS011;62235;52.160;7.526;2023-07-31T06:14:54;17.20;;;6.25;;
73900;SDS011;62235;52.160;7.526;2023-07-31T06:17:20;18.77;;;6.57;;
73900;SDS011;62235;52.160;7.526;2023-07-31T06:19:46;8.40;;;3.20;;
73900;SDS011;62235;52.160;7.526;2023-07-31T06:22:11;15.23;;;5.57;;
73900;SDS011;62235;52.160;7.526;2023-07-31T06:24:37;19.67;;;5.37;;
73900;SDS011;62235;52.160;7.526;2023-07-31T06:27:02;16.67;;;5.10;;
73900;SDS011;62235;52.160;7.526;2023-07-31T06:29:29;12.98;;;4.68;;
73900;SDS011;62235;52.160;7.526;2023-07-31T06:31:54;13.32;;;5.35;;
73900;SDS011;62235;52.160;7.526;2023-07-31T06:34:20;19.75;;;5.88;;
73900;SDS011;62235;52.160;7.526;2023-07-31T06:36:45;14.88;;;5.03;;
73900;SDS011;62235;52.160;7.526;2023-07-31T06:39:10;18.10;;;4.83;;
73900;SDS011;62235;52.160;7.526;2023-07-31T06:41:35;16.40;;;4.82;;
73900;SDS011;62235;52.160;7.526;2023-07-31T06:44:01;11.13;;;4.20;;
73900;SDS011;62235;52.160;7.526;2023-07-31T06:46:26;13.90;;;4.57;;
73900;SDS011;62235;52.160;7.526;2023-07-31T06:48:51;12.13;;;4.63;;
73900;SDS011;62235;52.160;7.526;2023-07-31T06:51:17;14.13;;;5.07;;
73900;SDS011;62235;52.160;7.526;2023-07-31T06:53:42;9.70;;;3.28;;
73900;SDS011;62235;52.160;7.526;2023-07-31T06:56:10;14.10;;;4.80;;
73900;SDS011;62235;52.160;7.526;2023-07-31T06:58:35;14.90;;;4.80;;
73900;SDS011;62235;52.160;7.526;2023-07-31T07:01:00;12.55;;;5.28;;
73900;SDS011;62235;52.160;7.526;2023-07-31T07:03:27;11.27;;;5.07;;
73900;SDS011;62235;52.160;7.526;2023-07-31T07:05:52;15.13;;;4.88;;
73900;SDS011;62235;52.160;7.526;2023-07-31T07:08:17;11.10;;;3.53;;
73900;SDS011;62235;52.160;7.526;2023-07-31T07:10:43;10.70;;;4.00;;
73900;SDS011;62235;52.160;7.526;2023-07-31T07:13:08;19.13;;;5.20;;
73900;SDS011;62235;52.160;7.526;2023-07-31T07:15:34;16.27;;;4.53;;
73900;SDS011;62235;52.160;7.526;2023-07-31T07:17:59;13.43;;;4.93;;
73900;SDS011;62235;52.160;7.526;2023-07-31T07:20:25;16.33;;;5.35;;
73900;SDS011;62235;52.160;7.526;2023-07-31T07:22:50;13.03;;;4.90;;
73900;SDS011;62235;52.160;7.526;2023-07-31T07:25:15;14.70;;;4.93;;
73900;SDS011;62235;52.160;7.526;2023-07-31T07:27:41;8.50;;;3.60;;
73900;SDS011;62235;52.160;7.526;2023-07-31T07:30:06;15.23;;;5.00;;
73900;SDS011;62235;52.160;7.526;2023-07-31T07:32:32;11.95;;;4.45;;
73900;SDS011;62235;52.160;7.526;2023-07-31T07:34:57;17.10;;;5.73;;
73900;SDS011;62235;52.160;7.526;2023-07-31T07:37:22;15.15;;;5.25;;
73900;SDS011;62235;52.160;7.526;2023-07-31T07:39:48;12.35;;;4.10;;
73900;SDS011;62235;52.160;7.526;2023-07-31T07:42:13;11.73;;;3.73;;
73900;SDS011;62235;52.160;7.526;2023-07-31T07:44:38;12.07;;;4.33;;
73900;SDS011;62235;52.160;7.526;2023-07-31T07:47:04;13.07;;;5.38;;
73900;SDS011;62235;52.160;7.526;2023-07-31T07:49:31;6.60;;;3.00;;
73900;SDS011;62235;52.160;7.526;2023-07-31T07:51:56;9.25;;;4.28;;
73900;SDS011;62235;52.160;7.526;2023-07-31T07:54:21;12.10;;;4.60;;
73900;SDS011;62235;52.160;7.526;2023-07-31T07:56:47;9.93;;;4.25;;
73900;SDS011;62235;52.160;7.526;2023-07-31T07:59:12;8.00;;;3.37;;
73900;SDS011;62235;52.160;7.526;2023-07-31T08:01:37;9.88;;;3.67;;
73900;SDS011;62235;52.160;7.526;2023-07-31T08:04:03;7.07;;;2.80;;
73900;SDS011;62235;52.160;7.526;2023-07-31T08:06:28;10.88;;;3.50;;
73900;SDS011;62235;52.160;7.526;2023-07-31T08:08:54;13.20;;;3.13;;
73900;SDS011;62235;52.160;7.526;2023-07-31T08:11:20;8.73;;;4.05;;
73900;SDS011;62235;52.160;7.526;2023-07-31T08:13:46;7.40;;;3.50;;
73900;SDS011;62235;52.160;7.526;2023-07-31T08:16:12;8.38;;;3.70;;
73900;SDS011;62235;52.160;7.526;2023-07-31T08:18:37;5.83;;;3.33;;
73900;SDS011;62235;52.160;7.526;2023-07-31T08:21:03;7.38;;;3.10;;
73900;SDS011;62235;52.160;7.526;2023-07-31T08:23:28;5.50;;;2.75;;
73900;SDS011;62235;52.160;7.526;2023-07-31T08:25:53;4.20;;;2.30;;
73900;SDS011;62235;52.160;7.526;2023-07-31T08:28:19;5.57;;;1.98;;
73900;SDS011;62235;52.160;7.526;2023-07-31T08:30:44;5.03;;;2.70;;
73900;SDS011;62235;52.160;7.526;2023-07-31T08:33:10;4.07;;;2.40;;
73900;SDS011;62235;52.160;7.526;2023-07-31T08:35:36;2.50;;;1.60;;
73900;SDS011;62235;52.160;7.526;2023-07-31T08:38:01;2.65;;;1.75;;
73900;SDS011;62235;52.160;7.526;2023-07-31T08:40:27;3.60;;;1.75;;
73900;SDS011;62235;52.160;7.526;2023-07-31T08:42:54;5.82;;;2.00;;
73900;SDS011;62235;52.160;7.526;2023-07-31T08:45:21;3.30;;;1.30;;
73900;SDS011;62235;52.160;7.526;2023-07-31T08:47:48;3.33;;;2.13;;
73900;SDS011;62235;52.160;7.526;2023-07-31T08:50:15;3.33;;;2.00;;
73900;SDS011;62235;52.160;7.526;2023-07-31T08:52:42;3.08;;;1.80;;
73900;SDS011;62235;52.160;7.526;2023-07-31T08:55:07;3.25;;;1.98;;
73900;SDS011;62235;52.160;7.526;2023-07-31T08:57:36;2.85;;;2.05;;
73900;SDS011;62235;52.160;7.526;2023-07-31T09:00:07;3.30;;;1.80;;
73900;SDS011;62235;52.160;7.526;2023-07-31T09:05:06;3.25;;;2.00;;
73900;SDS011;62235;52.160;7.526;2023-07-31T09:07:33;2.92;;;1.98;;
73900;SDS011;62235;52.160;7.526;2023-07-31T09:09:59;3.65;;;2.10;;
73900;SDS011;62235;52.160;7.526;2023-07-31T09:12:25;4.37;;;1.97;;
73900;SDS011;62235;52.160;7.526;2023-07-31T09:14:50;5.50;;;1.50;;
73900;SDS011;62235;52.160;7.526;2023-07-31T09:17:15;2.63;;;1.52;;
73900;SDS011;62235;52.160;7.526;2023-07-31T09:19:43;2.90;;;1.75;;
73900;SDS011;62235;52.160;7.526;2023-07-31T09:22:08;4.20;;;1.80;;
73900;SDS011;62235;52.160;7.526;2023-07-31T09:24:34;3.63;;;1.70;;
73900;SDS011;62235;52.160;7.526;2023-07-31T09:27:00;2.50;;;1.80;;
73900;SDS011;62235;52.160;7.526;2023-07-31T09:29:27;4.13;;;1.80;;
73900;SDS011;62235;52.160;7.526;2023-07-31T09:31:53;2.30;;;1.70;;
73900;SDS011;62235;52.160;7.526;2023-07-31T09:34:20;3.55;;;2.40;;
73900;SDS011;62235;52.160;7.526;2023-07-31T09:36:46;3.85;;;2.10;;
73900;SDS011;62235;52.160;7.526;2023-07-31T09:39:14;4.45;;;1.73;;
73900;SDS011;62235;52.160;7.526;2023-07-31T09:41:44;2.33;;;1.65;;
73900;SDS011;62235;52.160;7.526;2023-07-31T09:44:18;2.50;;;1.55;;
73900;SDS011;62235;52.160;7.526;2023-07-31T09:46:44;2.93;;;1.67;;
73900;SDS011;62235;52.160;7.526;2023-07-31T09:49:11;3.25;;;2.10;;
73900;SDS011;62235;52.160;7.526;2023-07-31T09:51:38;5.15;;;2.05;;
73900;SDS011;62235;52.160;7.526;2023-07-31T09:54:14;2.25;;;1.80;;
73900;SDS011;62235;52.160;7.526;2023-07-31T09:56:44;3.58;;;2.20;;
73900;SDS011;62235;52.160;7.526;2023-07-31T09:59:14;4.63;;;2.10;;
73900;SDS011;62235;52.160;7.526;2023-07-31T10:01:41;4.63;;;2.13;;
73900;SDS011;62235;52.160;7.526;2023-07-31T10:04:07;3.35;;;2.38;;
73900;SDS011;62235;52.160;7.526;2023-07-31T10:06:34;3.05;;;2.08;;
73900;SDS011;62235;52.160;7.526;2023-07-31T10:08:59;3.08;;;1.60;;
73900;SDS011;62235;52.160;7.526;2023-07-31T10:11:25;3.88;;;2.40;;
73900;SDS011;62235;52.160;7.526;2023-07-31T10:13:52;1.70;;;1.30;;
73900;SDS011;62235;52.160;7.526;2023-07-31T10:16:18;2.40;;;1.70;;
73900;SDS011;62235;52.160;7.526;2023-07-31T10:18:45;3.03;;;1.80;;
73900;SDS011;62235;52.160;7.526;2023-07-31T10:21:11;3.65;;;2.30;;
73900;SDS011;62235;52.160;7.526;2023-07-31T10:23:36;3.22;;;2.20;;
73900;SDS011;62235;52.160;7.526;2023-07-31T10:26:02;2.38;;;1.90;;
73900;SDS011;62235;52.160;7.526;2023-07-31T10:28:27;3.65;;;2.40;;
73900;SDS011;62235;52.160;7.526;2023-07-31T10:30:54;2.78;;;1.98;;
73900;SDS011;62235;52.160;7.526;2023-07-31T10:33:20;2.65;;;1.70;;
73900;SDS011;62235;52.160;7.526;2023-07-31T10:35:46;3.22;;;1.88;;
73900;SDS011;62235;52.160;7.526;2023-07-31T10:38:12;2.28;;;1.75;;
73900;SDS011;62235;52.160;7.526;2023-07-31T10:40:38;3.35;;;1.33;;
73900;SDS011;62235;52.160;7.526;2023-07-31T10:43:04;2.63;;;1.15;;
73900;SDS011;62235;52.160;7.526;2023-07-31T10:45:31;2.80;;;1.60;;
73900;SDS011;62235;52.160;7.526;2023-07-31T10:50:29;2.42;;;1.83;;
73900;SDS011;62235;52.160;7.526;2023-07-31T10:52:58;2.28;;;1.50;;
73900;SDS011;62235;52.160;7.526;2023-07-31T10:57:52;2.55;;;1.73;;
73900;SDS011;62235;52.160;7.526;2023-07-31T11:02:57;2.70;;;1.20;;
73900;SDS011;62235;52.160;7.526;2023-07-31T11:05:41;2.80;;;1.80;;
73900;SDS011;62235;52.160;7.526;2023-07-31T11:08:31;2.03;;;1.60;;
73900;SDS011;62235;52.160;7.526;2023-07-31T11:13:39;2.90;;;1.80;;
73900;SDS011;62235;52.160;7.526;2023-07-31T11:16:06;2.10;;;1.50;;
73900;SDS011;62235;52.160;7.526;2023-07-31T11:18:32;1.73;;;1.13;;
73900;SDS011;62235;52.160;7.526;2023-07-31T11:20:57;1.90;;;1.50;;
73900;SDS011;62235;52.160;7.526;2023-07-31T11:23:23;2.13;;;1.50;;
73900;SDS011;62235;52.160;7.526;2023-07-31T11:25:48;2.03;;;1.60;;
73900;SDS011;62235;52.160;7.526;2023-07-31T11:28:15;3.15;;;1.52;;
73900;SDS011;62235;52.160;7.526;2023-07-31T11:30:41;2.42;;;1.73;;
73900;SDS011;62235;52.160;7.526;2023-07-31T11:33:08;1.98;;;1.40;;
73900;SDS011;62235;52.160;7.526;2023-07-31T11:35:42;2.83;;;1.92;;
73900;SDS011;62235;52.160;7.526;2023-07-31T11:38:12;2.58;;;1.67;;
73900;SDS011;62235;52.160;7.526;2023-07-31T11:40:41;2.78;;;1.80;;
73900;SDS011;62235;52.160;7.526;2023-07-31T11:43:07;2.85;;;1.88;;
73900;SDS011;62235;52.160;7.526;2023-07-31T11:45:32;2.22;;;1.92;;
73900;SDS011;62235;52.160;7.526;2023-07-31T11:47:58;3.05;;;1.98;;
73900;SDS011;62235;52.160;7.526;2023-07-31T11:50:23;4.65;;;1.90;;
73900;SDS011;62235;52.160;7.526;2023-07-31T11:52:53;4.00;;;1.83;;
73900;SDS011;62235;52.160;7.526;2023-07-31T11:55:21;3.95;;;2.00;;
73900;SDS011;62235;52.160;7.526;2023-07-31T11:57:47;3.00;;;1.90;;
73900;SDS011;62235;52.160;7.526;2023-07-31T12:00:12;2.42;;;2.17;;
73900;SDS011;62235;52.160;7.526;2023-07-31T12:02:39;4.45;;;2.58;;
73900;SDS011;62235;52.160;7.526;2023-07-31T12:05:05;5.00;;;2.30;;
73900;SDS011;62235;52.160;7.526;2023-07-31T12:07:44;3.58;;;2.17;;
73900;SDS011;62235;52.160;7.526;2023-07-31T12:10:23;5.18;;;2.35;;
73900;SDS011;62235;52.160;7.526;2023-07-31T12:13:03;4.07;;;2.05;;
73900;SDS011;62235;52.160;7.526;2023-07-31T12:15:32;3.75;;;2.30;;
73900;SDS011;62235;52.160;7.526;2023-07-31T12:18:05;4.20;;;2.20;;
73900;SDS011;62235;52.160;7.526;2023-07-31T12:20:32;2.65;;;1.95;;
73900;SDS011;62235;52.160;7.526;2023-07-31T12:22:57;2.42;;;1.95;;
73900;SDS011;62235;52.160;7.526;2023-07-31T12:25:28;5.38;;;3.08;;
73900;SDS011;62235;52.160;7.526;2023-07-31T12:27:54;5.95;;;2.50;;
73900;SDS011;62235;52.160;7.526;2023-07-31T12:30:32;4.50;;;3.13;;
73900;SDS011;62235;52.160;7.526;2023-07-31T12:33:02;3.30;;;2.42;;
73900;SDS011;62235;52.160;7.526;2023-07-31T12:38:09;6.65;;;2.95;;
73900;SDS011;62235;52.160;7.526;2023-07-31T12:40:38;4.57;;;3.13;;
73900;SDS011;62235;52.160;7.526;2023-07-31T12:43:04;6.25;;;4.30;;
73900;SDS011;62235;52.160;7.526;2023-07-31T12:45:30;4.47;;;3.97;;
73900;SDS011;62235;52.160;7.526;2023-07-31T12:47:56;4.95;;;3.15;;
73900;SDS011;62235;52.160;7.526;2023-07-31T12:50:22;5.85;;;3.67;;
73900;SDS011;62235;52.160;7.526;2023-07-31T12:52:48;6.05;;;3.10;;
73900;SDS011;62235;52.160;7.526;2023-07-31T12:55:14;4.50;;;3.05;;
73900;SDS011;62235;52.160;7.526;2023-07-31T12:57:39;5.65;;;3.90;;
73900;SDS011;62235;52.160;7.526;2023-07-31T13:00:06;4.45;;;2.58;;
73900;SDS011;62235;52.160;7.526;2023-07-31T13:02:31;6.95;;;3.72;;
73900;SDS011;62235;52.160;7.526;2023-07-31T13:04:57;5.37;;;3.03;;
73900;SDS011;62235;52.160;7.526;2023-07-31T13:07:22;4.25;;;2.72;;
73900;SDS011;62235;52.160;7.526;2023-07-31T13:09:48;5.30;;;3.78;;
73900;SDS011;62235;52.160;7.526;2023-07-31T13:12:13;6.93;;;3.67;;
73900;SDS011;62235;52.160;7.526;2023-07-31T13:14:38;2.97;;;1.95;;
73900;SDS011;62235;52.160;7.526;2023-07-31T13:17:04;7.28;;;4.28;;
73900;SDS011;62235;52.160;7.526;2023-07-31T13:19:29;7.60;;;4.47;;
73900;SDS011;62235;52.160;7.526;2023-07-31T13:21:54;6.47;;;4.57;;
73900;SDS011;62235;52.160;7.526;2023-07-31T13:24:20;4.57;;;3.07;;
73900;SDS011;62235;52.160;7.526;2023-07-31T13:26:45;8.67;;;4.87;;
73900;SDS011;62235;52.160;7.526;2023-07-31T13:29:10;8.57;;;4.80;;
73900;SDS011;62235;52.160;7.526;2023-07-31T13:31:36;7.97;;;4.10;;
73900;SDS011;62235;52.160;7.526;2023-07-31T13:34:01;8.70;;;4.70;;
73900;SDS011;62235;52.160;7.526;2023-07-31T13:36:26;6.65;;;4.70;;
73900;SDS011;62235;52.160;7.526;2023-07-31T13:38:52;6.80;;;4.83;;
73900;SDS011;62235;52.160;7.526;2023-07-31T13:41:17;7.20;;;3.90;;
73900;SDS011;62235;52.160;7.526;2023-07-31T13:43:42;6.43;;;4.53;;
73900;SDS011;62235;52.160;7.526;2023-07-31T13:46:08;7.32;;;4.43;;
73900;SDS011;62235;52.160;7.526;2023-07-31T13:48:35;4.55;;;2.83;;
73900;SDS011;62235;52.160;7.526;2023-07-31T13:51:01;5.28;;;3.15;;
73900;SDS011;62235;52.160;7.526;2023-07-31T13:53:26;5.22;;;2.90;;
73900;SDS011;62235;52.160;7.526;2023-07-31T13:55:52;4.95;;;3.33;;
73900;SDS011;62235;52.160;7.526;2023-07-31T13:58:17;6.10;;;3.93;;
73900;SDS011;62235;52.160;7.526;2023-07-31T14:00:42;5.97;;;3.80;;
73900;SDS011;62235;52.160;7.526;2023-07-31T14:03:07;5.17;;;2.53;;
73900;SDS011;62235;52.160;7.526;2023-07-31T14:05:33;4.97;;;2.80;;
73900;SDS011;62235;52.160;7.526;2023-07-31T14:07:59;4.30;;;2.45;;
73900;SDS011;62235;52.160;7.526;2023-07-31T14:10:25;7.30;;;2.00;;
73900;SDS011;62235;52.160;7.526;2023-07-31T14:12:50;3.22;;;2.28;;
73900;SDS011;62235;52.160;7.526;2023-07-31T14:15:15;4.10;;;2.90;;
73900;SDS011;62235;52.160;7.526;2023-07-31T14:17:41;4.60;;;2.80;;
73900;SDS011;62235;52.160;7.526;2023-07-31T14:20:06;2.73;;;1.60;;
73900;SDS011;62235;52.160;7.526;2023-07-31T14:22:32;3.95;;;2.10;;
73900;SDS011;62235;52.160;7.526;2023-07-31T14:24:59;5.63;;;2.90;;
73900;SDS011;62235;52.160;7.526;2023-07-31T14:27:24;5.70;;;2.75;;
73900;SDS011;62235;52.160;7.526;2023-07-31T14:29:50;2.83;;;1.88;;
73900;SDS011;62235;52.160;7.526;2023-07-31T14:32:15;5.97;;;2.87;;
73900;SDS011;62235;52.160;7.526;2023-07-31T14:34:40;3.23;;;2.00;;
73900;SDS011;62235;52.160;7.526;2023-07-31T14:37:06;5.28;;;2.40;;
73900;SDS011;62235;52.160;7.526;2023-07-31T14:39:31;4.03;;;1.67;;
73900;SDS011;62235;52.160;7.526;2023-07-31T14:41:56;2.95;;;1.83;;
73900;SDS011;62235;52.160;7.526;2023-07-31T14:44:22;4.40;;;2.20;;
73900;SDS011;62235;52.160;7.526;2023-07-31T14:46:47;4.68;;;2.53;;
73900;SDS011;62235;52.160;7.526;2023-07-31T14:49:12;4.00;;;1.93;;
73900;SDS011;62235;52.160;7.526;2023-07-31T14:51:38;3.23;;;1.97;;
73900;SDS011;62235;52.160;7.526;2023-07-31T14:54:03;6.07;;;2.40;;
73900;SDS011;62235;52.160;7.526;2023-07-31T14:56:29;1.98;;;1.20;;